sensor_id;sensor_type;location;lat;lon;timestamp;pressure;altitude;pressure_sealevel;temperature;humidity
78615;BME280;67937;52.488;20.952;2023-06-10T00:02:28;100631.75;;;18.68;49.00
78615;BME280;67937;52.488;20.952;2023-06-10T00:04:56;100629.27;;;18.63;49.23
78615;BME280;67937;52.488;20.952;2023-06-10T00:07:24;100631.98;;;18.63;49.15
78615;BME280;67937;52.488;20.952;2023-06-10T00:09:53;100631.50;;;18.61;48.93
78615;BME280;67937;52.488;20.952;2023-06-10T00:12:21;100632.64;;;18.59;49.19
78615;BME280;67937;52.488;20.952;2023-06-10T00:14:49;100632.07;;;18.54;49.52
78615;BME280;67937;52.488;20.952;2023-06-10T00:17:20;100637.09;;;18.52;49.64
78615;BME280;67937;52.488;20.952;2023-06-10T00:19:49;100634.77;;;18.51;49.72
78615;BME280;67937;52.488;20.952;2023-06-10T00:22:17;100631.52;;;18.46;49.61
78615;BME280;67937;52.488;20.952;2023-06-10T00:24:45;100631.50;;;18.43;49.73
78615;BME280;67937;52.488;20.952;2023-06-10T00:27:14;100627.72;;;18.42;49.71
78615;BME280;67937;52.488;20.952;2023-06-10T00:29:42;100631.82;;;18.40;49.95
78615;BME280;67937;52.488;20.952;2023-06-10T00:32:10;100631.82;;;18.36;49.80
78615;BME280;67937;52.488;20.952;2023-06-10T00:34:38;100628.38;;;18.35;50.06
78615;BME280;67937;52.488;20.952;2023-06-10T00:37:06;100627.10;;;18.36;49.94
78615;BME280;67937;52.488;20.952;2023-06-10T00:39:34;100623.14;;;18.34;50.17
78615;BME280;67937;52.488;20.952;2023-06-10T00:42:02;100624.34;;;18.33;50.15
78615;BME280;67937;52.488;20.952;2023-06-10T00:44:33;100625.62;;;18.33;50.35
78615;BME280;67937;52.488;20.952;2023-06-10T00:47:02;100627.95;;;18.33;50.35
78615;BME280;67937;52.488;20.952;2023-06-10T00:49:31;100630.88;;;18.32;50.31
78615;BME280;67937;52.488;20.952;2023-06-10T00:52:02;100628.80;;;18.30;50.41
78615;BME280;67937;52.488;20.952;2023-06-10T00:54:31;100627.79;;;18.29;50.46
78615;BME280;67937;52.488;20.952;2023-06-10T00:57:01;100631.21;;;18.29;50.48
78615;BME280;67937;52.488;20.952;2023-06-10T00:59:30;100632.50;;;18.29;50.57
78615;BME280;67937;52.488;20.952;2023-06-10T01:01:58;100634.85;;;18.27;50.74
78615;BME280;67937;52.488;20.952;2023-06-10T01:04:27;100636.21;;;18.26;50.81
78615;BME280;67937;52.488;20.952;2023-06-10T01:07:17;100635.30;;;18.24;50.96
78615;BME280;67937;52.488;20.952;2023-06-10T01:09:59;100633.36;;;18.24;50.77
78615;BME280;67937;52.488;20.952;2023-06-10T01:12:43;100631.98;;;18.22;51.08
78615;BME280;67937;52.488;20.952;2023-06-10T01:15:16;100635.52;;;18.19;51.51
78615;BME280;67937;52.488;20.952;2023-06-10T01:17:58;100638.19;;;18.16;51.50
78615;BME280;67937;52.488;20.952;2023-06-10T01:20:32;100635.96;;;18.13;51.40
78615;BME280;67937;52.488;20.952;2023-06-10T01:23:01;100637.44;;;18.11;51.77
78615;BME280;67937;52.488;20.952;2023-06-10T01:25:30;100644.19;;;18.10;51.87
78615;BME280;67937;52.488;20.952;2023-06-10T01:28:20;100642.23;;;18.08;51.86
78615;BME280;67937;52.488;20.952;2023-06-10T01:30:53;100644.08;;;18.06;52.10
78615;BME280;67937;52.488;20.952;2023-06-10T01:33:27;100642.35;;;18.02;52.11
78615;BME280;67937;52.488;20.952;2023-06-10T01:36:02;100646.29;;;18.00;52.02
78615;BME280;67937;52.488;20.952;2023-06-10T01:38:36;100646.91;;;17.97;52.15
78615;BME280;67937;52.488;20.952;2023-06-10T01:41:06;100651.76;;;17.94;52.34
78615;BME280;67937;52.488;20.952;2023-06-10T01:43:37;100654.25;;;17.91;52.45
78615;BME280;67937;52.488;20.952;2023-06-10T01:46:06;100652.66;;;17.89;52.75
78615;BME280;67937;52.488;20.952;2023-06-10T01:48:34;100652.02;;;17.84;52.60
78615;BME280;67937;52.488;20.952;2023-06-10T01:51:02;100653.95;;;17.84;53.00
78615;BME280;67937;52.488;20.952;2023-06-10T01:53:30;100657.42;;;17.84;53.19
78615;BME280;67937;52.488;20.952;2023-06-10T01:55:58;100653.36;;;17.83;53.33
78615;BME280;67937;52.488;20.952;2023-06-10T01:58:27;100655.04;;;17.81;53.26
78615;BME280;67937;52.488;20.952;2023-06-10T02:00:55;100661.40;;;17.80;53.56
78615;BME280;67937;52.488;20.952;2023-06-10T02:03:23;100665.23;;;17.79;53.41
78615;BME280;67937;52.488;20.952;2023-06-10T02:05:52;100664.78;;;17.76;53.62
78615;BME280;67937;52.488;20.952;2023-06-10T02:08:20;100667.65;;;17.75;53.74
78615;BME280;67937;52.488;20.952;2023-06-10T02:10:48;100665.29;;;17.72;53.63
78615;BME280;67937;52.488;20.952;2023-06-10T02:13:17;100668.42;;;17.69;53.85
78615;BME280;67937;52.488;20.952;2023-06-10T02:15:45;100670.16;;;17.68;54.01
78615;BME280;67937;52.488;20.952;2023-06-10T02:18:13;100673.72;;;17.66;54.10
78615;BME280;67937;52.488;20.952;2023-06-10T02:20:41;100672.56;;;17.64;54.42
78615;BME280;67937;52.488;20.952;2023-06-10T02:23:10;100673.05;;;17.61;54.36
78615;BME280;67937;52.488;20.952;2023-06-10T02:25:38;100674.45;;;17.59;54.19
78615;BME280;67937;52.488;20.952;2023-06-10T02:28:06;100675.33;;;17.56;54.22
78615;BME280;67937;52.488;20.952;2023-06-10T02:30:34;100674.94;;;17.53;54.53
78615;BME280;67937;52.488;20.952;2023-06-10T02:33:03;100680.31;;;17.53;54.55
78615;BME280;67937;52.488;20.952;2023-06-10T02:35:31;100682.12;;;17.51;54.41
78615;BME280;67937;52.488;20.952;2023-06-10T02:37:59;100682.36;;;17.49;54.60
78615;BME280;67937;52.488;20.952;2023-06-10T02:40:28;100675.17;;;17.45;54.60
78615;BME280;67937;52.488;20.952;2023-06-10T02:42:56;100683.20;;;17.45;54.86
78615;BME280;67937;52.488;20.952;2023-06-10T02:45:25;100685.59;;;17.41;54.98
78615;BME280;67937;52.488;20.952;2023-06-10T02:47:53;100689.25;;;17.38;54.93
78615;BME280;67937;52.488;20.952;2023-06-10T02:50:21;100686.26;;;17.36;55.08
78615;BME280;67937;52.488;20.952;2023-06-10T02:52:49;100690.02;;;17.38;55.18
78615;BME280;67937;52.488;20.952;2023-06-10T02:55:17;100695.35;;;17.36;55.07
78615;BME280;67937;52.488;20.952;2023-06-10T02:57:45;100694.71;;;17.36;55.11
78615;BME280;67937;52.488;20.952;2023-06-10T03:00:14;100694.65;;;17.36;55.09
78615;BME280;67937;52.488;20.952;2023-06-10T03:02:42;100699.64;;;17.37;55.11
78615;BME280;67937;52.488;20.952;2023-06-10T03:05:12;100701.20;;;17.37;55.04
78615;BME280;67937;52.488;20.952;2023-06-10T03:07:40;100703.71;;;17.37;55.32
78615;BME280;67937;52.488;20.952;2023-06-10T03:10:08;100706.35;;;17.36;55.30
78615;BME280;67937;52.488;20.952;2023-06-10T03:12:36;100705.17;;;17.36;55.31
78615;BME280;67937;52.488;20.952;2023-06-10T03:15:05;100708.75;;;17.38;55.20
78615;BME280;67937;52.488;20.952;2023-06-10T03:17:33;100710.23;;;17.39;55.30
78615;BME280;67937;52.488;20.952;2023-06-10T03:20:02;100711.68;;;17.41;55.40
78615;BME280;67937;52.488;20.952;2023-06-10T03:22:32;100716.30;;;17.42;55.32
78615;BME280;67937;52.488;20.952;2023-06-10T03:25:00;100716.08;;;17.43;55.29
78615;BME280;67937;52.488;20.952;2023-06-10T03:27:28;100715.83;;;17.46;55.41
78615;BME280;67937;52.488;20.952;2023-06-10T03:29:56;100712.59;;;17.46;55.42
78615;BME280;67937;52.488;20.952;2023-06-10T03:32:27;100709.90;;;17.46;55.22
78615;BME280;67937;52.488;20.952;2023-06-10T03:34:55;100713.10;;;17.46;55.48
78615;BME280;67937;52.488;20.952;2023-06-10T03:37:26;100715.33;;;17.49;55.62
78615;BME280;67937;52.488;20.952;2023-06-10T03:39:54;100722.77;;;17.51;55.69
78615;BME280;67937;52.488;20.952;2023-06-10T03:42:22;100724.42;;;17.54;55.37
78615;BME280;67937;52.488;20.952;2023-06-10T03:44:51;100725.91;;;17.55;55.37
78615;BME280;67937;52.488;20.952;2023-06-10T03:47:19;100726.71;;;17.54;55.27
78615;BME280;67937;52.488;20.952;2023-06-10T03:49:47;100732.36;;;17.55;55.38
78615;BME280;67937;52.488;20.952;2023-06-10T03:52:15;100730.31;;;17.54;55.52
78615;BME280;67937;52.488;20.952;2023-06-10T03:54:43;100735.36;;;17.54;55.76
78615;BME280;67937;52.488;20.952;2023-06-10T03:57:11;100735.05;;;17.53;55.81
78615;BME280;67937;52.488;20.952;2023-06-10T03:59:39;100736.81;;;17.50;56.16
78615;BME280;67937;52.488;20.952;2023-06-10T04:02:07;100736.70;;;17.51;56.06
78615;BME280;67937;52.488;20.952;2023-06-10T04:04:36;100737.16;;;17.52;56.25
78615;BME280;67937;52.488;20.952;2023-06-10T04:07:05;100737.35;;;17.52;56.36
78615;BME280;67937;52.488;20.952;2023-06-10T04:09:33;100737.95;;;17.53;56.37
78615;BME280;67937;52.488;20.952;2023-06-10T04:12:02;100739.15;;;17.51;56.40
78615;BME280;67937;52.488;20.952;2023-06-10T04:14:32;100741.55;;;17.51;56.50
78615;BME280;67937;52.488;20.952;2023-06-10T04:17:00;100735.50;;;17.50;56.44
78615;BME280;67937;52.488;20.952;2023-06-10T04:19:29;100735.48;;;17.54;56.17
78615;BME280;67937;52.488;20.952;2023-06-10T04:21:58;100741.23;;;17.57;56.10
78615;BME280;67937;52.488;20.952;2023-06-10T04:24:26;100741.40;;;17.59;56.10
78615;BME280;67937;52.488;20.952;2023-06-10T04:26:54;100741.91;;;17.61;56.24
78615;BME280;67937;52.488;20.952;2023-06-10T04:29:22;100748.05;;;17.64;56.33
78615;BME280;67937;52.488;20.952;2023-06-10T04:31:50;100746.46;;;17.67;56.12
78615;BME280;67937;52.488;20.952;2023-06-10T04:34:19;100747.81;;;17.71;56.29
78615;BME280;67937;52.488;20.952;2023-06-10T04:36:47;100751.54;;;17.77;56.23
78615;BME280;67937;52.488;20.952;2023-06-10T04:39:16;100749.45;;;17.83;56.01
78615;BME280;67937;52.488;20.952;2023-06-10T04:41:45;100743.22;;;17.85;56.34
78615;BME280;67937;52.488;20.952;2023-06-10T04:44:13;100746.24;;;17.92;56.14
78615;BME280;67937;52.488;20.952;2023-06-10T04:46:41;100742.94;;;17.98;56.10
78615;BME280;67937;52.488;20.952;2023-06-10T04:49:10;100741.76;;;18.04;55.73
78615;BME280;67937;52.488;20.952;2023-06-10T04:51:41;100740.42;;;18.10;55.73
78615;BME280;67937;52.488;20.952;2023-06-10T04:54:09;100740.58;;;18.17;55.72
78615;BME280;67937;52.488;20.952;2023-06-10T04:56:37;100740.67;;;18.24;55.84
78615;BME280;67937;52.488;20.952;2023-06-10T04:59:06;100743.80;;;18.34;55.62
78615;BME280;67937;52.488;20.952;2023-06-10T05:01:34;100749.44;;;18.41;55.70
78615;BME280;67937;52.488;20.952;2023-06-10T05:04:02;100750.14;;;18.50;55.26
78615;BME280;67937;52.488;20.952;2023-06-10T05:06:31;100753.66;;;18.57;55.35
78615;BME280;67937;52.488;20.952;2023-06-10T05:08:59;100750.79;;;18.65;55.19
78615;BME280;67937;52.488;20.952;2023-06-10T05:11:27;100754.86;;;18.77;55.25
78615;BME280;67937;52.488;20.952;2023-06-10T05:13:55;100756.96;;;18.84;54.67
78615;BME280;67937;52.488;20.952;2023-06-10T05:16:23;100755.97;;;18.88;54.74
78615;BME280;67937;52.488;20.952;2023-06-10T05:18:51;100758.81;;;19.00;54.71
78615;BME280;67937;52.488;20.952;2023-06-10T05:21:20;100759.55;;;19.06;54.45
78615;BME280;67937;52.488;20.952;2023-06-10T05:23:48;100761.73;;;19.13;54.24
78615;BME280;67937;52.488;20.952;2023-06-10T05:26:16;100766.70;;;19.23;54.22
78615;BME280;67937;52.488;20.952;2023-06-10T05:28:45;100766.24;;;19.35;54.11
78615;BME280;67937;52.488;20.952;2023-06-10T05:31:13;100767.06;;;19.47;54.04
78615;BME280;67937;52.488;20.952;2023-06-10T05:33:41;100763.13;;;19.59;53.77
78615;BME280;67937;52.488;20.952;2023-06-10T05:36:09;100762.00;;;19.64;53.40
78615;BME280;67937;52.488;20.952;2023-06-10T05:38:37;100766.05;;;19.71;53.30
78615;BME280;67937;52.488;20.952;2023-06-10T05:41:05;100765.85;;;19.73;53.19
78615;BME280;67937;52.488;20.952;2023-06-10T05:43:33;100767.48;;;19.72;53.52
78615;BME280;67937;52.488;20.952;2023-06-10T05:46:01;100769.40;;;19.77;53.52
78615;BME280;67937;52.488;20.952;2023-06-10T05:48:29;100772.81;;;19.88;53.30
78615;BME280;67937;52.488;20.952;2023-06-10T05:50:57;100775.84;;;19.89;53.28
78615;BME280;67937;52.488;20.952;2023-06-10T05:53:26;100776.23;;;19.96;52.99
78615;BME280;67937;52.488;20.952;2023-06-10T05:55:54;100775.33;;;20.06;53.07
78615;BME280;67937;52.488;20.952;2023-06-10T05:58:24;100772.34;;;20.12;53.02
78615;BME280;67937;52.488;20.952;2023-06-10T06:00:52;100773.05;;;20.08;52.84
78615;BME280;67937;52.488;20.952;2023-06-10T06:03:20;100777.84;;;20.01;52.79
78615;BME280;67937;52.488;20.952;2023-06-10T06:05:48;100780.14;;;19.92;53.03
78615;BME280;67937;52.488;20.952;2023-06-10T06:08:16;100783.93;;;19.87;52.99
78615;BME280;67937;52.488;20.952;2023-06-10T06:10:45;100782.27;;;19.84;53.23
78615;BME280;67937;52.488;20.952;2023-06-10T06:13:14;100782.73;;;19.83;53.42
78615;BME280;67937;52.488;20.952;2023-06-10T06:15:42;100786.92;;;19.89;53.51
78615;BME280;67937;52.488;20.952;2023-06-10T06:18:11;100788.02;;;19.95;53.45
78615;BME280;67937;52.488;20.952;2023-06-10T06:20:40;100789.59;;;19.99;53.36
78615;BME280;67937;52.488;20.952;2023-06-10T06:23:08;100787.77;;;20.00;53.59
78615;BME280;67937;52.488;20.952;2023-06-10T06:25:37;100787.17;;;19.99;53.27
78615;BME280;67937;52.488;20.952;2023-06-10T06:28:06;100789.59;;;20.00;53.35
78615;BME280;67937;52.488;20.952;2023-06-10T06:30:35;100792.63;;;19.99;53.41
78615;BME280;67937;52.488;20.952;2023-06-10T06:33:04;100796.07;;;19.98;53.57
78615;BME280;67937;52.488;20.952;2023-06-10T06:35:33;100792.34;;;20.01;53.49
78615;BME280;67937;52.488;20.952;2023-06-10T06:38:01;100791.91;;;20.03;53.19
78615;BME280;67937;52.488;20.952;2023-06-10T06:40:30;100794.77;;;20.02;53.09
78615;BME280;67937;52.488;20.952;2023-06-10T06:42:59;100797.59;;;20.02;53.16
78615;BME280;67937;52.488;20.952;2023-06-10T06:45:27;100793.81;;;20.06;52.77
78615;BME280;67937;52.488;20.952;2023-06-10T06:47:56;100793.23;;;20.11;52.55
78615;BME280;67937;52.488;20.952;2023-06-10T06:50:24;100795.85;;;20.10;52.49
78615;BME280;67937;52.488;20.952;2023-06-10T06:52:52;100797.52;;;20.17;52.69
78615;BME280;67937;52.488;20.952;2023-06-10T06:55:20;100796.86;;;20.26;52.55
78615;BME280;67937;52.488;20.952;2023-06-10T06:57:48;100798.25;;;20.30;52.36
78615;BME280;67937;52.488;20.952;2023-06-10T07:00:17;100801.15;;;20.40;52.23
78615;BME280;67937;52.488;20.952;2023-06-10T07:02:45;100801.85;;;20.46;52.40
78615;BME280;67937;52.488;20.952;2023-06-10T07:05:14;100806.70;;;20.55;52.31
78615;BME280;67937;52.488;20.952;2023-06-10T07:07:43;100806.55;;;20.60;52.34
78615;BME280;67937;52.488;20.952;2023-06-10T07:10:11;100804.17;;;20.63;52.32
78615;BME280;67937;52.488;20.952;2023-06-10T07:12:39;100807.52;;;20.74;51.93
78615;BME280;67937;52.488;20.952;2023-06-10T07:15:08;100808.75;;;20.87;51.89
78615;BME280;67937;52.488;20.952;2023-06-10T07:17:36;100815.58;;;21.01;51.62
78615;BME280;67937;52.488;20.952;2023-06-10T07:20:04;100811.77;;;21.03;51.59
78615;BME280;67937;52.488;20.952;2023-06-10T07:22:33;100812.52;;;21.01;51.65
78615;BME280;67937;52.488;20.952;2023-06-10T07:25:01;100816.52;;;21.14;51.69
78615;BME280;67937;52.488;20.952;2023-06-10T07:27:29;100819.08;;;21.29;51.25
78615;BME280;67937;52.488;20.952;2023-06-10T07:29:57;100823.52;;;21.42;51.33
78615;BME280;67937;52.488;20.952;2023-06-10T07:32:27;100820.84;;;21.57;51.00
78615;BME280;67937;52.488;20.952;2023-06-10T07:34:55;100817.30;;;21.71;50.71
78615;BME280;67937;52.488;20.952;2023-06-10T07:37:23;100817.73;;;21.98;50.61
78615;BME280;67937;52.488;20.952;2023-06-10T07:39:51;100817.92;;;22.27;50.16
78615;BME280;67937;52.488;20.952;2023-06-10T07:42:19;100816.68;;;22.52;49.78
78615;BME280;67937;52.488;20.952;2023-06-10T07:44:48;100815.97;;;22.64;49.54
78615;BME280;67937;52.488;20.952;2023-06-10T07:47:16;100815.36;;;22.60;49.43
78615;BME280;67937;52.488;20.952;2023-06-10T07:49:44;100816.45;;;22.60;49.40
78615;BME280;67937;52.488;20.952;2023-06-10T07:52:12;100818.13;;;22.62;49.09
78615;BME280;67937;52.488;20.952;2023-06-10T07:54:40;100818.33;;;22.69;49.09
78615;BME280;67937;52.488;20.952;2023-06-10T07:57:08;100817.64;;;22.81;48.88
78615;BME280;67937;52.488;20.952;2023-06-10T07:59:37;100820.75;;;22.96;48.70
78615;BME280;67937;52.488;20.952;2023-06-10T08:02:06;100825.65;;;23.10;48.31
78615;BME280;67937;52.488;20.952;2023-06-10T08:04:34;100825.35;;;23.23;48.03
78615;BME280;67937;52.488;20.952;2023-06-10T08:07:03;100825.70;;;23.37;48.00
78615;BME280;67937;52.488;20.952;2023-06-10T08:09:32;100827.95;;;23.59;47.75
78615;BME280;67937;52.488;20.952;2023-06-10T08:12:00;100826.92;;;23.78;47.18
78615;BME280;67937;52.488;20.952;2023-06-10T08:14:28;100823.27;;;23.86;46.62
78615;BME280;67937;52.488;20.952;2023-06-10T08:16:56;100823.09;;;23.98;46.82
78615;BME280;67937;52.488;20.952;2023-06-10T08:19:24;100821.84;;;24.12;46.36
78615;BME280;67937;52.488;20.952;2023-06-10T08:21:52;100817.73;;;24.20;45.97
78615;BME280;67937;52.488;20.952;2023-06-10T08:24:21;100814.77;;;24.29;45.75
78615;BME280;67937;52.488;20.952;2023-06-10T08:26:49;100817.66;;;24.34;44.85
78615;BME280;67937;52.488;20.952;2023-06-10T08:29:17;100815.64;;;24.37;44.66
78615;BME280;67937;52.488;20.952;2023-06-10T08:31:45;100815.91;;;24.45;44.90
78615;BME280;67937;52.488;20.952;2023-06-10T08:34:14;100813.45;;;24.58;44.48
78615;BME280;67937;52.488;20.952;2023-06-10T08:36:43;100813.98;;;24.73;44.04
78615;BME280;67937;52.488;20.952;2023-06-10T08:39:11;100816.29;;;24.87;43.99
78615;BME280;67937;52.488;20.952;2023-06-10T08:41:43;100817.03;;;25.01;43.85
78615;BME280;67937;52.488;20.952;2023-06-10T08:44:22;100816.14;;;25.07;43.37
78615;BME280;67937;52.488;20.952;2023-06-10T08:46:59;100817.66;;;25.13;43.10
78615;BME280;67937;52.488;20.952;2023-06-10T08:49:30;100812.66;;;25.15;43.18
78615;BME280;67937;52.488;20.952;2023-06-10T08:51:59;100815.81;;;25.24;43.29
78615;BME280;67937;52.488;20.952;2023-06-10T08:54:31;100813.44;;;25.44;42.74
78615;BME280;67937;52.488;20.952;2023-06-10T08:57:04;100818.66;;;25.49;42.77
78615;BME280;67937;52.488;20.952;2023-06-10T08:59:33;100812.99;;;25.52;42.59
78615;BME280;67937;52.488;20.952;2023-06-10T09:02:02;100814.89;;;25.64;42.28
78615;BME280;67937;52.488;20.952;2023-06-10T09:04:32;100815.40;;;25.64;41.89
78615;BME280;67937;52.488;20.952;2023-06-10T09:07:02;100810.93;;;25.62;41.63
78615;BME280;67937;52.488;20.952;2023-06-10T09:09:31;100814.64;;;25.68;41.61
78615;BME280;67937;52.488;20.952;2023-06-10T09:12:00;100812.57;;;25.87;41.38
78615;BME280;67937;52.488;20.952;2023-06-10T09:14:29;100810.16;;;25.92;41.03
78615;BME280;67937;52.488;20.952;2023-06-10T09:16:57;100809.10;;;26.06;40.84
78615;BME280;67937;52.488;20.952;2023-06-10T09:19:27;100808.23;;;26.09;41.05
78615;BME280;67937;52.488;20.952;2023-06-10T09:21:56;100808.70;;;26.20;40.93
78615;BME280;67937;52.488;20.952;2023-06-10T09:24:25;100812.59;;;26.24;39.94
78615;BME280;67937;52.488;20.952;2023-06-10T09:27:12;100810.55;;;26.22;39.83
78615;BME280;67937;52.488;20.952;2023-06-10T09:29:54;100814.50;;;26.32;39.62
78615;BME280;67937;52.488;20.952;2023-06-10T09:32:22;100817.23;;;26.47;39.59
78615;BME280;67937;52.488;20.952;2023-06-10T09:34:50;100818.65;;;26.50;39.02
78615;BME280;67937;52.488;20.952;2023-06-10T09:37:23;100813.37;;;26.68;38.72
78615;BME280;67937;52.488;20.952;2023-06-10T09:40:05;100810.46;;;26.74;38.46
78615;BME280;67937;52.488;20.952;2023-06-10T09:42:39;100811.73;;;26.75;38.62
78615;BME280;67937;52.488;20.952;2023-06-10T09:45:07;100813.91;;;26.82;38.75
78615;BME280;67937;52.488;20.952;2023-06-10T09:47:36;100812.30;;;26.78;38.47
78615;BME280;67937;52.488;20.952;2023-06-10T09:50:05;100816.66;;;26.66;38.10
78615;BME280;67937;52.488;20.952;2023-06-10T09:52:33;100813.40;;;26.58;37.45
78615;BME280;67937;52.488;20.952;2023-06-10T09:55:02;100813.78;;;26.56;37.75
78615;BME280;67937;52.488;20.952;2023-06-10T09:57:31;100813.20;;;26.59;37.25
78615;BME280;67937;52.488;20.952;2023-06-10T10:00:04;100815.20;;;26.70;37.41
78615;BME280;67937;52.488;20.952;2023-06-10T10:02:44;100823.73;;;26.79;37.12
78615;BME280;67937;52.488;20.952;2023-06-10T10:05:18;100822.35;;;26.81;36.35
78615;BME280;67937;52.488;20.952;2023-06-10T10:07:47;100816.61;;;26.75;36.24
78615;BME280;67937;52.488;20.952;2023-06-10T10:10:18;100819.11;;;26.72;36.05
78615;BME280;67937;52.488;20.952;2023-06-10T10:12:48;100814.58;;;26.57;35.92
78615;BME280;67937;52.488;20.952;2023-06-10T10:15:17;100812.62;;;26.55;35.88
78615;BME280;67937;52.488;20.952;2023-06-10T10:20:33;100807.98;;;26.59;36.10
78615;BME280;67937;52.488;20.952;2023-06-10T10:23:03;100810.14;;;26.64;36.25
78615;BME280;67937;52.488;20.952;2023-06-10T10:25:38;100806.64;;;26.68;35.65
78615;BME280;67937;52.488;20.952;2023-06-10T10:28:12;100807.00;;;26.68;34.87
78615;BME280;67937;52.488;20.952;2023-06-10T10:30:42;100806.92;;;26.65;35.14
78615;BME280;67937;52.488;20.952;2023-06-10T10:33:17;100798.90;;;26.69;34.75
78615;BME280;67937;52.488;20.952;2023-06-10T10:35:46;100809.04;;;26.77;34.95
78615;BME280;67937;52.488;20.952;2023-06-10T10:38:15;100803.84;;;26.82;35.34
78615;BME280;67937;52.488;20.952;2023-06-10T10:40:44;100806.60;;;26.83;35.40
78615;BME280;67937;52.488;20.952;2023-06-10T10:43:14;100815.77;;;26.86;35.14
78615;BME280;67937;52.488;20.952;2023-06-10T10:45:46;100809.80;;;26.86;34.98
78615;BME280;67937;52.488;20.952;2023-06-10T10:48:26;100802.89;;;26.81;34.49
78615;BME280;67937;52.488;20.952;2023-06-10T10:50:57;100804.10;;;26.81;35.20
78615;BME280;67937;52.488;20.952;2023-06-10T10:53:25;100809.14;;;26.83;35.33
78615;BME280;67937;52.488;20.952;2023-06-10T10:56:13;100809.54;;;26.74;35.49
78615;BME280;67937;52.488;20.952;2023-06-10T10:58:42;100808.37;;;26.75;35.53
78615;BME280;67937;52.488;20.952;2023-06-10T11:01:14;100800.09;;;26.78;35.52
78615;BME280;67937;52.488;20.952;2023-06-10T11:03:44;100805.05;;;26.91;36.00
78615;BME280;67937;52.488;20.952;2023-06-10T11:06:15;100799.86;;;26.99;35.81
78615;BME280;67937;52.488;20.952;2023-06-10T11:11:20;100803.61;;;27.13;36.08
78615;BME280;67937;52.488;20.952;2023-06-10T11:13:59;100798.14;;;27.11;35.96
78615;BME280;67937;52.488;20.952;2023-06-10T11:16:40;100800.39;;;27.16;35.99
78615;BME280;67937;52.488;20.952;2023-06-10T11:19:09;100796.59;;;27.21;36.13
78615;BME280;67937;52.488;20.952;2023-06-10T11:22:07;100795.41;;;27.24;36.12
78615;BME280;67937;52.488;20.952;2023-06-10T11:24:37;100791.83;;;27.32;36.43
78615;BME280;67937;52.488;20.952;2023-06-10T11:27:18;100791.05;;;27.39;36.01
78615;BME280;67937;52.488;20.952;2023-06-10T11:32:32;100787.59;;;27.43;35.72
78615;BME280;67937;52.488;20.952;2023-06-10T11:35:04;100792.40;;;27.49;35.81
78615;BME280;67937;52.488;20.952;2023-06-10T11:37:33;100789.55;;;27.62;35.66
78615;BME280;67937;52.488;20.952;2023-06-10T11:40:02;100787.05;;;27.67;35.86
78615;BME280;67937;52.488;20.952;2023-06-10T11:42:30;100784.73;;;27.74;36.09
78615;BME280;67937;52.488;20.952;2023-06-10T11:44:59;100783.92;;;27.70;36.23
78615;BME280;67937;52.488;20.952;2023-06-10T11:47:29;100779.10;;;27.64;36.31
78615;BME280;67937;52.488;20.952;2023-06-10T11:49:58;100776.71;;;27.60;36.34
78615;BME280;67937;52.488;20.952;2023-06-10T11:52:28;100772.77;;;27.56;36.32
78615;BME280;67937;52.488;20.952;2023-06-10T11:54:56;100773.76;;;27.58;36.66
78615;BME280;67937;52.488;20.952;2023-06-10T11:57:24;100772.06;;;27.66;36.81
78615;BME280;67937;52.488;20.952;2023-06-10T11:59:52;100781.84;;;27.46;36.75
78615;BME280;67937;52.488;20.952;2023-06-10T12:02:21;100773.45;;;27.27;36.71
78615;BME280;67937;52.488;20.952;2023-06-10T12:04:49;100776.20;;;27.32;37.04
78615;BME280;67937;52.488;20.952;2023-06-10T12:07:18;100773.49;;;27.41;37.14
78615;BME280;67937;52.488;20.952;2023-06-10T12:09:58;100765.34;;;27.60;36.93
78615;BME280;67937;52.488;20.952;2023-06-10T12:12:27;100772.48;;;27.56;36.96
78615;BME280;67937;52.488;20.952;2023-06-10T12:15:00;100769.76;;;27.22;37.16
78615;BME280;67937;52.488;20.952;2023-06-10T12:20:03;100777.09;;;27.15;37.26
78615;BME280;67937;52.488;20.952;2023-06-10T12:22:44;100772.49;;;27.30;36.92
78615;BME280;67937;52.488;20.952;2023-06-10T12:25:12;100764.61;;;27.44;36.26
78615;BME280;67937;52.488;20.952;2023-06-10T12:27:50;100764.86;;;27.45;36.88
78615;BME280;67937;52.488;20.952;2023-06-10T12:30:23;100762.10;;;27.57;36.91
78615;BME280;67937;52.488;20.952;2023-06-10T12:32:53;100757.02;;;27.75;36.34
78615;BME280;67937;52.488;20.952;2023-06-10T12:35:26;100762.45;;;27.77;36.59
78615;BME280;67937;52.488;20.952;2023-06-10T12:38:00;100765.67;;;27.49;36.81
78615;BME280;67937;52.488;20.952;2023-06-10T12:40:34;100763.56;;;27.15;37.04
78615;BME280;67937;52.488;20.952;2023-06-10T12:43:05;100758.34;;;26.98;36.27
78615;BME280;67937;52.488;20.952;2023-06-10T12:45:36;100756.95;;;26.92;36.26
78615;BME280;67937;52.488;20.952;2023-06-10T12:48:10;100758.15;;;26.85;36.42
78615;BME280;67937;52.488;20.952;2023-06-10T12:50:40;100753.70;;;26.82;36.79
78615;BME280;67937;52.488;20.952;2023-06-10T12:53:10;100746.73;;;27.02;36.65
78615;BME280;67937;52.488;20.952;2023-06-10T12:55:39;100751.55;;;27.16;36.75
78615;BME280;67937;52.488;20.952;2023-06-10T12:58:07;100749.01;;;26.99;36.75
78615;BME280;67937;52.488;20.952;2023-06-10T13:00:36;100753.33;;;26.70;37.05
78615;BME280;67937;52.488;20.952;2023-06-10T13:03:04;100749.73;;;26.73;37.17
78615;BME280;67937;52.488;20.952;2023-06-10T13:05:35;100745.80;;;26.77;36.64